sensor_id;sensor_type;location;lat;lon;timestamp;P1;durP1;ratioP1;P2;durP2;ratioP2
3274;SDS011;1649;53.672;10.064;2023-03-23T00:01:55;19.40;;;10.93;;
3274;SDS011;1649;53.672;10.064;2023-03-23T00:04:21;17.50;;;10.87;;
3274;SDS011;1649;53.672;10.064;2023-03-23T00:06:47;14.87;;;9.97;;
3274;SDS011;1649;53.672;10.064;2023-03-23T00:09:14;16.97;;;10.80;;
3274;SDS011;1649;53.672;10.064;2023-03-23T00:11:40;21.27;;;11.60;;
3274;SDS011;1649;53.672;10.064;2023-03-23T00:14:06;18.67;;;12.00;;
3274;SDS011;1649;53.672;10.064;2023-03-23T00:16:38;20.50;;;11.27;;
3274;SDS011;1649;53.672;10.064;2023-03-23T00:19:07;18.40;;;11.33;;
3274;SDS011;1649;53.672;10.064;2023-03-23T00:21:40;19.30;;;11.23;;
3274;SDS011;1649;53.672;10.064;2023-03-23T00:24:10;20.20;;;12.50;;
3274;SDS011;1649;53.672;10.064;2023-03-23T00:26:37;20.93;;;11.10;;
3274;SDS011;1649;53.672;10.064;2023-03-23T00:29:10;19.33;;;12.83;;
3274;SDS011;1649;53.672;10.064;2023-03-23T00:31:39;19.27;;;11.50;;
3274;SDS011;1649;53.672;10.064;2023-03-23T00:34:05;21.77;;;13.33;;
3274;SDS011;1649;53.672;10.064;2023-03-23T00:36:31;24.33;;;14.50;;
3274;SDS011;1649;53.672;10.064;2023-03-23T00:38:59;22.43;;;14.00;;
3274;SDS011;1649;53.672;10.064;2023-03-23T00:41:26;28.83;;;15.80;;
3274;SDS011;1649;53.672;10.064;2023-03-23T00:43:54;24.57;;;15.30;;
3274;SDS011;1649;53.672;10.064;2023-03-23T00:46:20;26.90;;;16.07;;
3274;SDS011;1649;53.672;10.064;2023-03-23T00:48:47;22.73;;;14.47;;
3274;SDS011;1649;53.672;10.064;2023-03-23T00:51:13;27.53;;;13.47;;
3274;SDS011;1649;53.672;10.064;2023-03-23T00:53:39;28.43;;;17.03;;
3274;SDS011;1649;53.672;10.064;2023-03-23T00:56:05;30.53;;;17.50;;
3274;SDS011;1649;53.672;10.064;2023-03-23T00:58:32;24.93;;;16.20;;
3274;SDS011;1649;53.672;10.064;2023-03-23T01:00:58;30.90;;;19.73;;
3274;SDS011;1649;53.672;10.064;2023-03-23T01:03:23;28.07;;;18.20;;
3274;SDS011;1649;53.672;10.064;2023-03-23T01:05:50;28.33;;;18.20;;
3274;SDS011;1649;53.672;10.064;2023-03-23T01:08:16;30.17;;;18.17;;
3274;SDS011;1649;53.672;10.064;2023-03-23T01:10:43;31.67;;;18.77;;
3274;SDS011;1649;53.672;10.064;2023-03-23T01:13:09;30.70;;;18.63;;
3274;SDS011;1649;53.672;10.064;2023-03-23T01:15:36;28.17;;;18.67;;
3274;SDS011;1649;53.672;10.064;2023-03-23T01:18:02;27.73;;;17.67;;
3274;SDS011;1649;53.672;10.064;2023-03-23T01:20:27;28.23;;;18.20;;
3274;SDS011;1649;53.672;10.064;2023-03-23T01:22:56;24.00;;;14.60;;
3274;SDS011;1649;53.672;10.064;2023-03-23T01:25:25;29.17;;;17.00;;
3274;SDS011;1649;53.672;10.064;2023-03-23T01:27:52;32.50;;;17.20;;
3274;SDS011;1649;53.672;10.064;2023-03-23T01:30:17;26.20;;;16.97;;
3274;SDS011;1649;53.672;10.064;2023-03-23T01:32:43;25.63;;;16.70;;
3274;SDS011;1649;53.672;10.064;2023-03-23T01:35:08;25.00;;;16.40;;
3274;SDS011;1649;53.672;10.064;2023-03-23T01:37:34;25.63;;;15.33;;
3274;SDS011;1649;53.672;10.064;2023-03-23T01:40:01;26.87;;;17.67;;
3274;SDS011;1649;53.672;10.064;2023-03-23T01:42:33;27.03;;;16.50;;
3274;SDS011;1649;53.672;10.064;2023-03-23T01:45:45;25.77;;;16.07;;
3274;SDS011;1649;53.672;10.064;2023-03-23T01:47:58;20.80;;;12.70;;
3274;SDS011;1649;53.672;10.064;2023-03-23T01:50:30;26.10;;;16.33;;
3274;SDS011;1649;53.672;10.064;2023-03-23T01:53:02;24.17;;;15.90;;
3274;SDS011;1649;53.672;10.064;2023-03-23T01:55:33;27.40;;;17.27;;
3274;SDS011;1649;53.672;10.064;2023-03-23T01:58:01;26.13;;;17.40;;
3274;SDS011;1649;53.672;10.064;2023-03-23T02:00:27;25.23;;;17.33;;
3274;SDS011;1649;53.672;10.064;2023-03-23T02:02:53;26.60;;;18.30;;
3274;SDS011;1649;53.672;10.064;2023-03-23T02:05:28;29.93;;;19.30;;
3274;SDS011;1649;53.672;10.064;2023-03-23T02:07:58;27.00;;;14.20;;
3274;SDS011;1649;53.672;10.064;2023-03-23T02:10:27;32.07;;;18.87;;
3274;SDS011;1649;53.672;10.064;2023-03-23T02:12:57;28.67;;;18.43;;
3274;SDS011;1649;53.672;10.064;2023-03-23T02:15:26;29.93;;;18.77;;
3274;SDS011;1649;53.672;10.064;2023-03-23T02:18:08;31.27;;;19.57;;
3274;SDS011;1649;53.672;10.064;2023-03-23T02:23:51;28.53;;;17.77;;
3274;SDS011;1649;53.672;10.064;2023-03-23T02:34:32;30.57;;;20.87;;
3274;SDS011;1649;53.672;10.064;2023-03-23T02:37:09;29.00;;;18.97;;
3274;SDS011;1649;53.672;10.064;2023-03-23T02:39:43;30.50;;;20.40;;
3274;SDS011;1649;53.672;10.064;2023-03-23T02:42:16;29.90;;;20.73;;
3274;SDS011;1649;53.672;10.064;2023-03-23T02:44:46;31.63;;;20.30;;
3274;SDS011;1649;53.672;10.064;2023-03-23T02:47:16;28.40;;;16.70;;
3274;SDS011;1649;53.672;10.064;2023-03-23T02:49:45;30.50;;;20.20;;
3274;SDS011;1649;53.672;10.064;2023-03-23T02:52:18;31.00;;;19.77;;
3274;SDS011;1649;53.672;10.064;2023-03-23T02:54:47;32.37;;;20.80;;
3274;SDS011;1649;53.672;10.064;2023-03-23T02:57:14;31.63;;;21.47;;
3274;SDS011;1649;53.672;10.064;2023-03-23T02:59:41;27.13;;;19.63;;
3274;SDS011;1649;53.672;10.064;2023-03-23T03:02:11;32.33;;;21.03;;
3274;SDS011;1649;53.672;10.064;2023-03-23T03:04:40;27.27;;;18.90;;
3274;SDS011;1649;53.672;10.064;2023-03-23T03:10:04;30.13;;;18.90;;
3274;SDS011;1649;53.672;10.064;2023-03-23T03:12:36;25.53;;;17.30;;
3274;SDS011;1649;53.672;10.064;2023-03-23T03:15:21;28.57;;;18.50;;
3274;SDS011;1649;53.672;10.064;2023-03-23T03:17:56;29.10;;;19.57;;
3274;SDS011;1649;53.672;10.064;2023-03-23T03:20:37;28.07;;;19.20;;
3274;SDS011;1649;53.672;10.064;2023-03-23T03:23:05;30.33;;;20.37;;
3274;SDS011;1649;53.672;10.064;2023-03-23T03:25:32;28.30;;;19.47;;
3274;SDS011;1649;53.672;10.064;2023-03-23T03:27:58;31.00;;;19.67;;
3274;SDS011;1649;53.672;10.064;2023-03-23T03:30:26;27.33;;;19.37;;
3274;SDS011;1649;53.672;10.064;2023-03-23T03:32:55;27.37;;;19.40;;
3274;SDS011;1649;53.672;10.064;2023-03-23T03:35:22;30.63;;;19.43;;
3274;SDS011;1649;53.672;10.064;2023-03-23T03:37:49;31.80;;;20.63;;
3274;SDS011;1649;53.672;10.064;2023-03-23T03:40:16;24.97;;;14.17;;
3274;SDS011;1649;53.672;10.064;2023-03-23T03:42:44;30.37;;;20.40;;
3274;SDS011;1649;53.672;10.064;2023-03-23T03:45:14;28.73;;;19.40;;
3274;SDS011;1649;53.672;10.064;2023-03-23T03:47:41;30.23;;;18.90;;
3274;SDS011;1649;53.672;10.064;2023-03-23T03:50:07;31.80;;;21.50;;
3274;SDS011;1649;53.672;10.064;2023-03-23T03:52:33;33.93;;;22.90;;
3274;SDS011;1649;53.672;10.064;2023-03-23T03:55:00;33.93;;;21.90;;
3274;SDS011;1649;53.672;10.064;2023-03-23T03:57:25;34.53;;;23.70;;
3274;SDS011;1649;53.672;10.064;2023-03-23T03:59:51;35.17;;;23.17;;
3274;SDS011;1649;53.672;10.064;2023-03-23T04:02:17;38.30;;;23.17;;
3274;SDS011;1649;53.672;10.064;2023-03-23T04:04:45;30.67;;;22.17;;
3274;SDS011;1649;53.672;10.064;2023-03-23T04:07:12;34.87;;;22.40;;
3274;SDS011;1649;53.672;10.064;2023-03-23T04:09:38;30.70;;;20.63;;
3274;SDS011;1649;53.672;10.064;2023-03-23T04:12:08;33.23;;;21.10;;
3274;SDS011;1649;53.672;10.064;2023-03-23T04:14:33;28.80;;;21.10;;
3274;SDS011;1649;53.672;10.064;2023-03-23T04:16:59;28.73;;;19.03;;
3274;SDS011;1649;53.672;10.064;2023-03-23T04:19:25;31.07;;;21.77;;
3274;SDS011;1649;53.672;10.064;2023-03-23T04:21:53;29.90;;;18.50;;
3274;SDS011;1649;53.672;10.064;2023-03-23T04:24:20;27.90;;;20.50;;
3274;SDS011;1649;53.672;10.064;2023-03-23T04:26:48;29.63;;;19.40;;
3274;SDS011;1649;53.672;10.064;2023-03-23T04:29:14;28.70;;;21.40;;
3274;SDS011;1649;53.672;10.064;2023-03-23T04:31:40;29.07;;;20.10;;
3274;SDS011;1649;53.672;10.064;2023-03-23T04:34:09;28.43;;;20.47;;
3274;SDS011;1649;53.672;10.064;2023-03-23T04:36:38;30.80;;;20.73;;
3274;SDS011;1649;53.672;10.064;2023-03-23T04:39:04;33.30;;;21.00;;
3274;SDS011;1649;53.672;10.064;2023-03-23T04:41:31;24.97;;;15.97;;
3274;SDS011;1649;53.672;10.064;2023-03-23T04:43:57;27.53;;;20.07;;
3274;SDS011;1649;53.672;10.064;2023-03-23T04:46:27;29.07;;;19.50;;
3274;SDS011;1649;53.672;10.064;2023-03-23T04:48:53;31.70;;;19.93;;
3274;SDS011;1649;53.672;10.064;2023-03-23T04:51:20;27.50;;;20.30;;
3274;SDS011;1649;53.672;10.064;2023-03-23T04:53:46;27.07;;;20.03;;
3274;SDS011;1649;53.672;10.064;2023-03-23T04:56:11;27.03;;;17.07;;
3274;SDS011;1649;53.672;10.064;2023-03-23T04:58:38;26.67;;;19.40;;
3274;SDS011;1649;53.672;10.064;2023-03-23T05:01:05;26.67;;;19.60;;
3274;SDS011;1649;53.672;10.064;2023-03-23T05:03:31;27.63;;;19.23;;
3274;SDS011;1649;53.672;10.064;2023-03-23T05:05:57;28.47;;;19.90;;
3274;SDS011;1649;53.672;10.064;2023-03-23T05:08:22;26.23;;;19.53;;
3274;SDS011;1649;53.672;10.064;2023-03-23T05:10:55;27.13;;;19.40;;
3274;SDS011;1649;53.672;10.064;2023-03-23T05:13:22;28.90;;;19.87;;
3274;SDS011;1649;53.672;10.064;2023-03-23T05:15:48;26.33;;;18.17;;
3274;SDS011;1649;53.672;10.064;2023-03-23T05:18:14;26.70;;;20.33;;
3274;SDS011;1649;53.672;10.064;2023-03-23T05:20:40;27.33;;;21.00;;
3274;SDS011;1649;53.672;10.064;2023-03-23T05:23:07;31.63;;;19.57;;
3274;SDS011;1649;53.672;10.064;2023-03-23T05:25:34;33.53;;;20.40;;
3274;SDS011;1649;53.672;10.064;2023-03-23T05:28:05;29.43;;;18.77;;
3274;SDS011;1649;53.672;10.064;2023-03-23T05:30:32;27.33;;;19.03;;
3274;SDS011;1649;53.672;10.064;2023-03-23T05:32:59;27.37;;;19.87;;
3274;SDS011;1649;53.672;10.064;2023-03-23T05:35:24;27.43;;;19.57;;
3274;SDS011;1649;53.672;10.064;2023-03-23T05:37:50;27.60;;;20.20;;
3274;SDS011;1649;53.672;10.064;2023-03-23T05:40:18;27.57;;;20.03;;
3274;SDS011;1649;53.672;10.064;2023-03-23T05:42:45;26.63;;;18.73;;
3274;SDS011;1649;53.672;10.064;2023-03-23T05:45:11;26.80;;;19.80;;
3274;SDS011;1649;53.672;10.064;2023-03-23T05:47:40;24.80;;;16.67;;
3274;SDS011;1649;53.672;10.064;2023-03-23T05:50:07;27.13;;;18.17;;
3274;SDS011;1649;53.672;10.064;2023-03-23T05:52:37;25.80;;;16.77;;
3274;SDS011;1649;53.672;10.064;2023-03-23T05:55:03;23.10;;;17.70;;
3274;SDS011;1649;53.672;10.064;2023-03-23T05:57:30;23.47;;;16.83;;
3274;SDS011;1649;53.672;10.064;2023-03-23T05:59:56;25.53;;;18.17;;
3274;SDS011;1649;53.672;10.064;2023-03-23T06:02:22;19.90;;;14.70;;
3274;SDS011;1649;53.672;10.064;2023-03-23T06:04:49;23.10;;;16.20;;
3274;SDS011;1649;53.672;10.064;2023-03-23T06:07:15;21.87;;;16.23;;
3274;SDS011;1649;53.672;10.064;2023-03-23T06:09:40;21.70;;;16.13;;
3274;SDS011;1649;53.672;10.064;2023-03-23T06:12:07;21.50;;;15.77;;
3274;SDS011;1649;53.672;10.064;2023-03-23T06:14:34;20.93;;;14.97;;
3274;SDS011;1649;53.672;10.064;2023-03-23T06:17:00;20.63;;;14.90;;
3274;SDS011;1649;53.672;10.064;2023-03-23T06:19:26;18.43;;;13.83;;
3274;SDS011;1649;53.672;10.064;2023-03-23T06:21:56;19.90;;;14.60;;
3274;SDS011;1649;53.672;10.064;2023-03-23T06:24:22;23.63;;;15.80;;
3274;SDS011;1649;53.672;10.064;2023-03-23T06:26:47;20.10;;;11.50;;
3274;SDS011;1649;53.672;10.064;2023-03-23T06:29:14;23.23;;;13.80;;
3274;SDS011;1649;53.672;10.064;2023-03-23T06:31:41;19.60;;;13.10;;
3274;SDS011;1649;53.672;10.064;2023-03-23T06:34:09;22.27;;;14.07;;
3274;SDS011;1649;53.672;10.064;2023-03-23T06:36:36;18.00;;;12.20;;
3274;SDS011;1649;53.672;10.064;2023-03-23T06:39:02;18.50;;;12.70;;
3274;SDS011;1649;53.672;10.064;2023-03-23T06:41:31;17.53;;;12.30;;
3274;SDS011;1649;53.672;10.064;2023-03-23T06:43:58;20.93;;;12.60;;
3274;SDS011;1649;53.672;10.064;2023-03-23T06:46:24;16.37;;;11.07;;
3274;SDS011;1649;53.672;10.064;2023-03-23T06:48:50;17.87;;;11.33;;
3274;SDS011;1649;53.672;10.064;2023-03-23T06:51:16;17.50;;;11.27;;
3274;SDS011;1649;53.672;10.064;2023-03-23T06:53:42;16.67;;;11.10;;
3274;SDS011;1649;53.672;10.064;2023-03-23T06:56:08;14.13;;;10.10;;
3274;SDS011;1649;53.672;10.064;2023-03-23T06:58:34;15.43;;;10.50;;
3274;SDS011;1649;53.672;10.064;2023-03-23T07:01:00;14.90;;;8.87;;
3274;SDS011;1649;53.672;10.064;2023-03-23T07:03:26;15.07;;;7.83;;
3274;SDS011;1649;53.672;10.064;2023-03-23T07:05:52;13.40;;;9.33;;
3274;SDS011;1649;53.672;10.064;2023-03-23T07:08:19;12.20;;;8.63;;
3274;SDS011;1649;53.672;10.064;2023-03-23T07:10:46;12.20;;;7.70;;
3274;SDS011;1649;53.672;10.064;2023-03-23T07:13:12;14.23;;;8.60;;
3274;SDS011;1649;53.672;10.064;2023-03-23T07:15:38;11.10;;;6.27;;
3274;SDS011;1649;53.672;10.064;2023-03-23T07:18:04;13.30;;;9.00;;
3274;SDS011;1649;53.672;10.064;2023-03-23T07:20:30;12.10;;;7.13;;
3274;SDS011;1649;53.672;10.064;2023-03-23T07:22:55;10.80;;;7.63;;
3274;SDS011;1649;53.672;10.064;2023-03-23T07:25:21;12.37;;;7.53;;
3274;SDS011;1649;53.672;10.064;2023-03-23T07:27:46;14.23;;;7.57;;
3274;SDS011;1649;53.672;10.064;2023-03-23T07:30:12;14.90;;;8.90;;
3274;SDS011;1649;53.672;10.064;2023-03-23T07:32:39;10.73;;;7.30;;
3274;SDS011;1649;53.672;10.064;2023-03-23T07:35:05;10.10;;;5.87;;
3274;SDS011;1649;53.672;10.064;2023-03-23T07:37:32;10.27;;;6.97;;
3274;SDS011;1649;53.672;10.064;2023-03-23T07:39:57;9.60;;;6.37;;
3274;SDS011;1649;53.672;10.064;2023-03-23T07:42:23;12.30;;;8.13;;
3274;SDS011;1649;53.672;10.064;2023-03-23T07:44:48;10.07;;;6.60;;
3274;SDS011;1649;53.672;10.064;2023-03-23T07:47:14;12.30;;;7.57;;
3274;SDS011;1649;53.672;10.064;2023-03-23T07:49:39;11.70;;;7.47;;
3274;SDS011;1649;53.672;10.064;2023-03-23T07:52:05;11.43;;;7.67;;
3274;SDS011;1649;53.672;10.064;2023-03-23T07:54:31;13.23;;;8.03;;
3274;SDS011;1649;53.672;10.064;2023-03-23T07:56:56;16.37;;;8.10;;
3274;SDS011;1649;53.672;10.064;2023-03-23T07:59:22;11.13;;;8.10;;
3274;SDS011;1649;53.672;10.064;2023-03-23T08:01:47;13.33;;;9.30;;
3274;SDS011;1649;53.672;10.064;2023-03-23T08:04:13;11.67;;;6.67;;
3274;SDS011;1649;53.672;10.064;2023-03-23T08:06:40;11.80;;;6.10;;
3274;SDS011;1649;53.672;10.064;2023-03-23T08:09:06;14.05;;;8.20;;
3274;SDS011;1649;53.672;10.064;2023-03-23T08:11:34;9.10;;;5.20;;
3274;SDS011;1649;53.672;10.064;2023-03-23T08:14:00;6.70;;;2.97;;
3274;SDS011;1649;53.672;10.064;2023-03-23T08:16:25;7.60;;;1.80;;
3274;SDS011;1649;53.672;10.064;2023-03-23T08:18:51;5.17;;;1.80;;
3274;SDS011;1649;53.672;10.064;2023-03-23T08:21:16;5.10;;;1.97;;
3274;SDS011;1649;53.672;10.064;2023-03-23T08:23:42;5.30;;;1.77;;
3274;SDS011;1649;53.672;10.064;2023-03-23T08:26:08;5.30;;;2.10;;
3274;SDS011;1649;53.672;10.064;2023-03-23T08:28:35;4.78;;;1.65;;
3274;SDS011;1649;53.672;10.064;2023-03-23T08:31:05;4.95;;;1.70;;
3274;SDS011;1649;53.672;10.064;2023-03-23T08:33:35;5.70;;;2.10;;
3274;SDS011;1649;53.672;10.064;2023-03-23T08:36:02;6.43;;;1.87;;
3274;SDS011;1649;53.672;10.064;2023-03-23T08:38:28;7.37;;;2.07;;
3274;SDS011;1649;53.672;10.064;2023-03-23T08:40:58;7.80;;;2.00;;
3274;SDS011;1649;53.672;10.064;2023-03-23T08:43:29;5.10;;;1.90;;
3274;SDS011;1649;53.672;10.064;2023-03-23T08:45:55;4.70;;;2.10;;
3274;SDS011;1649;53.672;10.064;2023-03-23T08:48:21;7.30;;;2.43;;
3274;SDS011;1649;53.672;10.064;2023-03-23T08:50:48;10.10;;;2.60;;
3274;SDS011;1649;53.672;10.064;2023-03-23T08:53:14;6.13;;;2.27;;
3274;SDS011;1649;53.672;10.064;2023-03-23T08:55:40;6.97;;;3.07;;
3274;SDS011;1649;53.672;10.064;2023-03-23T08:58:07;8.53;;;2.60;;
3274;SDS011;1649;53.672;10.064;2023-03-23T09:00:33;6.30;;;2.87;;
3274;SDS011;1649;53.672;10.064;2023-03-23T09:02:59;7.00;;;3.53;;
3274;SDS011;1649;53.672;10.064;2023-03-23T09:05:25;8.23;;;3.50;;
3274;SDS011;1649;53.672;10.064;2023-03-23T09:07:53;7.10;;;3.37;;
3274;SDS011;1649;53.672;10.064;2023-03-23T09:10:21;5.50;;;2.77;;
3274;SDS011;1649;53.672;10.064;2023-03-23T09:12:49;6.90;;;3.43;;
3274;SDS011;1649;53.672;10.064;2023-03-23T09:15:17;7.30;;;3.20;;
3274;SDS011;1649;53.672;10.064;2023-03-23T09:17:44;6.57;;;3.57;;
3274;SDS011;1649;53.672;10.064;2023-03-23T09:20:12;7.00;;;3.70;;
3274;SDS011;1649;53.672;10.064;2023-03-23T09:22:39;7.20;;;4.13;;
3274;SDS011;1649;53.672;10.064;2023-03-23T09:25:07;11.70;;;4.80;;
3274;SDS011;1649;53.672;10.064;2023-03-23T09:27:34;8.30;;;4.23;;
3274;SDS011;1649;53.672;10.064;2023-03-23T09:30:01;9.30;;;4.67;;
3274;SDS011;1649;53.672;10.064;2023-03-23T09:32:32;6.67;;;3.83;;
3274;SDS011;1649;53.672;10.064;2023-03-23T09:34:59;8.93;;;4.13;;
3274;SDS011;1649;53.672;10.064;2023-03-23T09:37:26;9.50;;;4.30;;
3274;SDS011;1649;53.672;10.064;2023-03-23T09:39:52;9.30;;;3.23;;
3274;SDS011;1649;53.672;10.064;2023-03-23T09:42:35;14.40;;;4.13;;
3274;SDS011;1649;53.672;10.064;2023-03-23T09:45:22;10.33;;;4.37;;
3274;SDS011;1649;53.672;10.064;2023-03-23T09:50:39;9.30;;;3.50;;
3274;SDS011;1649;53.672;10.064;2023-03-23T09:53:19;7.27;;;2.90;;
3274;SDS011;1649;53.672;10.064;2023-03-23T09:55:48;8.30;;;3.17;;
3274;SDS011;1649;53.672;10.064;2023-03-23T10:00:58;7.93;;;2.40;;
3274;SDS011;1649;53.672;10.064;2023-03-23T10:03:26;12.57;;;3.03;;
3274;SDS011;1649;53.672;10.064;2023-03-23T10:05:59;8.80;;;2.63;;
3274;SDS011;1649;53.672;10.064;2023-03-23T10:08:26;8.33;;;2.80;;
3274;SDS011;1649;53.672;10.064;2023-03-23T10:19:17;8.10;;;2.47;;
3274;SDS011;1649;53.672;10.064;2023-03-23T10:21:59;10.73;;;2.40;;
3274;SDS011;1649;53.672;10.064;2023-03-23T10:24:35;9.63;;;2.80;;
3274;SDS011;1649;53.672;10.064;2023-03-23T10:29:50;10.83;;;2.50;;
3274;SDS011;1649;53.672;10.064;2023-03-23T10:32:22;10.10;;;2.70;;
3274;SDS011;1649;53.672;10.064;2023-03-23T10:35:19;8.03;;;2.33;;
3274;SDS011;1649;53.672;10.064;2023-03-23T10:37:53;8.60;;;2.80;;
3274;SDS011;1649;53.672;10.064;2023-03-23T10:40:27;11.43;;;2.20;;
3274;SDS011;1649;53.672;10.064;2023-03-23T10:42:54;10.67;;;2.63;;
3274;SDS011;1649;53.672;10.064;2023-03-23T10:45:24;9.60;;;2.23;;
3274;SDS011;1649;53.672;10.064;2023-03-23T10:47:56;8.97;;;2.13;;
3274;SDS011;1649;53.672;10.064;2023-03-23T10:50:26;10.67;;;2.40;;
3274;SDS011;1649;53.672;10.064;2023-03-23T10:52:56;13.43;;;2.40;;
3274;SDS011;1649;53.672;10.064;2023-03-23T10:55:23;9.20;;;2.50;;
3274;SDS011;1649;53.672;10.064;2023-03-23T10:58:07;12.90;;;2.80;;
3274;SDS011;1649;53.672;10.064;2023-03-23T11:00:42;10.50;;;2.50;;
3274;SDS011;1649;53.672;10.064;2023-03-23T11:08:14;8.57;;;2.00;;
3274;SDS011;1649;53.672;10.064;2023-03-23T11:10:54;13.67;;;3.17;;
3274;SDS011;1649;53.672;10.064;2023-03-23T11:13:26;11.70;;;2.43;;
3274;SDS011;1649;53.672;10.064;2023-03-23T11:15:54;11.07;;;2.30;;
3274;SDS011;1649;53.672;10.064;2023-03-23T11:20:50;9.93;;;2.30;;
3274;SDS011;1649;53.672;10.064;2023-03-23T11:23:23;10.33;;;2.50;;
3274;SDS011;1649;53.672;10.064;2023-03-23T11:26:08;9.23;;;2.70;;
3274;SDS011;1649;53.672;10.064;2023-03-23T11:29:15;9.00;;;2.13;;
3274;SDS011;1649;53.672;10.064;2023-03-23T11:31:36;12.60;;;2.87;;
3274;SDS011;1649;53.672;10.064;2023-03-23T11:34:48;9.83;;;2.47;;
3274;SDS011;1649;53.672;10.064;2023-03-23T11:42:11;8.27;;;2.40;;
3274;SDS011;1649;53.672;10.064;2023-03-23T11:44:45;11.97;;;2.30;;
3274;SDS011;1649;53.672;10.064;2023-03-23T11:47:22;15.47;;;3.10;;
3274;SDS011;1649;53.672;10.064;2023-03-23T11:50:16;12.63;;;2.50;;
3274;SDS011;1649;53.672;10.064;2023-03-23T11:55:37;11.97;;;2.60;;
3274;SDS011;1649;53.672;10.064;2023-03-23T11:58:23;16.40;;;3.00;;
3274;SDS011;1649;53.672;10.064;2023-03-23T12:00:51;14.00;;;3.30;;
3274;SDS011;1649;53.672;10.064;2023-03-23T12:03:19;11.90;;;2.70;;
3274;SDS011;1649;53.672;10.064;2023-03-23T12:05:49;11.43;;;2.63;;
3274;SDS011;1649;53.672;10.064;2023-03-23T12:11:27;10.90;;;2.37;;
3274;SDS011;1649;53.672;10.064;2023-03-23T12:14:14;11.70;;;2.40;;
3274;SDS011;1649;53.672;10.064;2023-03-23T12:19:15;9.10;;;2.33;;
3274;SDS011;1649;53.672;10.064;2023-03-23T12:40:48;15.93;;;3.30;;
3274;SDS011;1649;53.672;10.064;2023-03-23T12:48:49;11.77;;;3.67;;
3274;SDS011;1649;53.672;10.064;2023-03-23T12:51:30;12.37;;;3.33;;
3274;SDS011;1649;53.672;10.064;2023-03-23T12:57:07;10.53;;;3.70;;
3274;SDS011;1649;53.672;10.064;2023-03-23T12:59:57;10.63;;;4.03;;
3274;SDS011;1649;53.672;10.064;2023-03-23T13:02:52;10.33;;;4.37;;
3274;SDS011;1649;53.672;10.064;2023-03-23T13:10:42;10.70;;;4.93;;
3274;SDS011;1649;53.672;10.064;2023-03-23T13:13:49;10.83;;;5.37;;
3274;SDS011;1649;53.672;10.064;2023-03-23T13:16:17;12.13;;;5.20;;
3274;SDS011;1649;53.672;10.064;2023-03-23T13:19:10;11.90;;;4.93;;
3274;SDS011;1649;53.672;10.064;2023-03-23T13:21:46;9.10;;;3.77;;
3274;SDS011;1649;53.672;10.064;2023-03-23T13:24:22;13.80;;;6.10;;
3274;SDS011;1649;53.672;10.064;2023-03-23T13:26:50;11.93;;;4.67;;
3274;SDS011;1649;53.672;10.064;2023-03-23T13:29:20;9.70;;;4.70;;
3274;SDS011;1649;53.672;10.064;2023-03-23T13:31:49;14.67;;;6.00;;
3274;SDS011;1649;53.672;10.064;2023-03-23T13:34:22;10.00;;;4.40;;
3274;SDS011;1649;53.672;10.064;2023-03-23T13:36:58;11.53;;;5.13;;
3274;SDS011;1649;53.672;10.064;2023-03-23T13:39:32;9.90;;;4.20;;
3274;SDS011;1649;53.672;10.064;2023-03-23T13:42:03;16.00;;;4.70;;
3274;SDS011;1649;53.672;10.064;2023-03-23T13:44:40;14.70;;;4.33;;
3274;SDS011;1649;53.672;10.064;2023-03-23T13:49:49;10.43;;;3.67;;
3274;SDS011;1649;53.672;10.064;2023-03-23T13:52:23;9.83;;;3.40;;
3274;SDS011;1649;53.672;10.064;2023-03-23T13:55:12;7.67;;;2.67;;
3274;SDS011;1649;53.672;10.064;2023-03-23T13:57:52;4.80;;;1.80;;
3274;SDS011;1649;53.672;10.064;2023-03-23T14:08:35;6.70;;;2.27;;
3274;SDS011;1649;53.672;10.064;2023-03-23T14:11:13;6.93;;;2.17;;
3274;SDS011;1649;53.672;10.064;2023-03-23T14:13:45;8.67;;;2.20;;
3274;SDS011;1649;53.672;10.064;2023-03-23T14:16:40;4.77;;;2.27;;
3274;SDS011;1649;53.672;10.064;2023-03-23T14:19:15;8.37;;;2.70;;
3274;SDS011;1649;53.672;10.064;2023-03-23T14:21:50;6.60;;;2.37;;
3274;SDS011;1649;53.672;10.064;2023-03-23T14:24:22;6.40;;;2.30;;
3274;SDS011;1649;53.672;10.064;2023-03-23T14:26:50;9.30;;;2.57;;
3274;SDS011;1649;53.672;10.064;2023-03-23T14:29:26;4.83;;;1.90;;
3274;SDS011;1649;53.672;10.064;2023-03-23T14:31:54;7.07;;;2.10;;
3274;SDS011;1649;53.672;10.064;2023-03-23T14:34:22;8.40;;;2.60;;
3274;SDS011;1649;53.672;10.064;2023-03-23T14:36:50;5.60;;;2.53;;
3274;SDS011;1649;53.672;10.064;2023-03-23T14:39:31;10.20;;;2.80;;
3274;SDS011;1649;53.672;10.064;2023-03-23T14:42:04;6.43;;;2.90;;
3274;SDS011;1649;53.672;10.064;2023-03-23T14:44:37;11.53;;;3.40;;
3274;SDS011;1649;53.672;10.064;2023-03-23T14:47:09;6.13;;;2.93;;
3274;SDS011;1649;53.672;10.064;2023-03-23T14:49:41;7.17;;;3.00;;
3274;SDS011;1649;53.672;10.064;2023-03-23T14:52:17;6.50;;;2.63;;
3274;SDS011;1649;53.672;10.064;2023-03-23T14:54:44;7.77;;;3.10;;
3274;SDS011;1649;53.672;10.064;2023-03-23T14:57:11;7.57;;;2.80;;
3274;SDS011;1649;53.672;10.064;2023-03-23T14:59:42;11.07;;;3.03;;
3274;SDS011;1649;53.672;10.064;2023-03-23T15:02:17;6.70;;;2.50;;
3274;SDS011;1649;53.672;10.064;2023-03-23T15:05:08;6.43;;;2.93;;
3274;SDS011;1649;53.672;10.064;2023-03-23T15:07:38;9.23;;;2.53;;
3274;SDS011;1649;53.672;10.064;2023-03-23T15:10:06;7.30;;;2.53;;
3274;SDS011;1649;53.672;10.064;2023-03-23T15:12:33;8.23;;;3.00;;
3274;SDS011;1649;53.672;10.064;2023-03-23T15:15:01;11.53;;;3.33;;
3274;SDS011;1649;53.672;10.064;2023-03-23T15:17:33;7.33;;;2.40;;
3274;SDS011;1649;53.672;10.064;2023-03-23T15:20:17;6.87;;;2.80;;
3274;SDS011;1649;53.672;10.064;2023-03-23T15:22:46;10.40;;;2.67;;
3274;SDS011;1649;53.672;10.064;2023-03-23T15:28:06;8.73;;;3.30;;
3274;SDS011;1649;53.672;10.064;2023-03-23T15:30:47;6.93;;;2.50;;
3274;SDS011;1649;53.672;10.064;2023-03-23T15:33:15;8.00;;;2.70;;
3274;SDS011;1649;53.672;10.064;2023-03-23T15:35:45;9.77;;;2.57;;
3274;SDS011;1649;53.672;10.064;2023-03-23T15:38:31;6.90;;;2.47;;
3274;SDS011;1649;53.672;10.064;2023-03-23T15:40:59;10.37;;;3.10;;
3274;SDS011;1649;53.672;10.064;2023-03-23T15:43:28;7.80;;;3.00;;
3274;SDS011;1649;53.672;10.064;2023-03-23T15:46:20;7.47;;;2.77;;
3274;SDS011;1649;53.672;10.064;2023-03-23T15:51:16;9.07;;;3.67;;
3274;SDS011;1649;53.672;10.064;2023-03-23T15:53:44;9.93;;;3.63;;
3274;SDS011;1649;53.672;10.064;2023-03-23T15:56:10;7.97;;;3.93;;
3274;SDS011;1649;53.672;10.064;2023-03-23T15:58:38;11.40;;;4.00;;
3274;SDS011;1649;53.672;10.064;2023-03-23T16:01:06;7.60;;;4.00;;
3274;SDS011;1649;53.672;10.064;2023-03-23T16:03:41;7.37;;;4.00;;
3274;SDS011;1649;53.672;10.064;2023-03-23T16:06:11;9.93;;;4.30;;
3274;SDS011;1649;53.672;10.064;2023-03-23T16:08:37;8.60;;;4.43;;
3274;SDS011;1649;53.672;10.064;2023-03-23T16:11:05;14.33;;;5.20;;
3274;SDS011;1649;53.672;10.064;2023-03-23T16:13:35;9.23;;;4.60;;
3274;SDS011;1649;53.672;10.064;2023-03-23T16:16:01;11.67;;;5.00;;
3274;SDS011;1649;53.672;10.064;2023-03-23T16:18:28;9.90;;;4.67;;
3274;SDS011;1649;53.672;10.064;2023-03-23T16:20:55;10.60;;;4.50;;
3274;SDS011;1649;53.672;10.064;2023-03-23T16:23:21;10.17;;;5.20;;
3274;SDS011;1649;53.672;10.064;2023-03-23T16:25:47;8.53;;;4.50;;
3274;SDS011;1649;53.672;10.064;2023-03-23T16:28:13;7.00;;;3.47;;
3274;SDS011;1649;53.672;10.064;2023-03-23T16:30:40;10.30;;;4.10;;
3274;SDS011;1649;53.672;10.064;2023-03-23T16:33:07;10.67;;;4.80;;
3274;SDS011;1649;53.672;10.064;2023-03-23T16:35:33;13.20;;;4.37;;
3274;SDS011;1649;53.672;10.064;2023-03-23T16:37:59;9.40;;;4.07;;
3274;SDS011;1649;53.672;10.064;2023-03-23T16:40:25;9.10;;;3.90;;
3274;SDS011;1649;53.672;10.064;2023-03-23T16:42:51;7.83;;;3.30;;